Time;durP1;ratioP1;P1;durP2;ratioP2;P2;SDS_P1;SDS_P2;PMS_P1;PMS_P2;Temp;Humidity;BMP_temperature;BMP_pressure;BME280_temperature;BME280_humidity;BME280_pressure;Samples;Min_cycle;Max_cycle;Signal;HPM_P1;HPM_P2
2022/02/25 00:01:35;;;;;;;10.38;2.75;;;7.60;61.70;;;;;;5070590;28;20175;-78
2022/02/25 00:04:02;;;;;;;12.10;2.28;;;7.60;61.70;;;;;;5070550;28;20105;-79
2022/02/25 00:06:28;;;;;;;10.30;2.40;;;7.60;61.60;;;;;;5070362;28;20040;-79
2022/02/25 00:08:54;;;;;;;9.02;1.92;;;7.60;61.60;;;;;;5088339;28;20114;-79
2022/02/25 00:11:20;;;;;;;6.85;2.00;;;7.60;61.60;;;;;;5088346;28;20062;-77
2022/02/25 00:13:46;;;;;;;11.15;3.17;;;7.60;61.50;;;;;;5071133;28;20063;-77
2022/02/25 00:16:12;;;;;;;6.88;1.80;;;7.60;61.50;;;;;;5088937;28;20111;-77
2022/02/25 00:18:38;;;;;;;8.57;2.92;;;7.60;61.40;;;;;;5070144;28;20028;-78
2022/02/25 00:21:04;;;;;;;9.82;2.72;;;7.60;61.40;;;;;;5088527;28;20509;-77
2022/02/25 00:23:30;;;;;;;10.48;2.33;;;7.70;61.60;;;;;;5088389;28;20032;-78
2022/02/25 00:25:56;;;;;;;10.70;2.53;;;7.70;61.60;;;;;;5088409;28;20032;-77
2022/02/25 00:28:22;;;;;;;8.40;3.00;;;7.70;61.60;;;;;;5087717;28;20031;-78
2022/02/25 00:30:48;;;;;;;10.05;2.05;;;7.70;61.50;;;;;;5088286;28;20134;-78
2022/02/25 00:33:16;;;;;;;8.48;1.88;;;7.70;61.50;;;;;;5087921;28;20028;-78
2022/02/25 00:35:43;;;;;;;11.05;2.58;;;7.70;61.50;;;;;;5070598;28;20419;-77
2022/02/25 00:38:09;;;;;;;11.90;2.55;;;7.80;61.60;;;;;;5070043;28;20035;-78
2022/02/25 00:40:35;;;;;;;11.48;2.45;;;7.70;61.40;;;;;;5089909;28;20020;-79
2022/02/25 00:43:01;;;;;;;8.50;2.60;;;7.80;61.60;;;;;;5072380;28;20038;-80
2022/02/25 00:45:27;;;;;;;11.35;4.30;;;7.80;61.50;;;;;;5063648;28;20399;-80
2022/02/25 00:47:53;;;;;;;7.78;1.95;;;7.80;61.60;;;;;;5068942;28;20041;-79
2022/02/25 00:50:20;;;;;;;11.82;3.63;;;7.70;61.30;;;;;;5065399;28;20593;-80
2022/02/25 00:52:46;;;;;;;9.02;1.90;;;7.80;61.50;;;;;;5053417;28;20667;-79
2022/02/25 00:55:12;;;;;;;14.48;4.07;;;7.80;61.50;;;;;;5069833;28;20091;-79
2022/02/25 00:57:49;;;;;;;7.07;2.33;;;7.80;61.50;;;;;;5087989;28;20036;-79
2022/02/25 01:00:19;;;;;;;6.10;2.50;;;7.80;61.40;;;;;;5087804;28;20031;-80
2022/02/25 01:02:46;;;;;;;13.40;2.67;;;7.80;61.40;;;;;;5069531;28;20115;-80
2022/02/25 01:05:13;;;;;;;10.95;3.28;;;7.80;61.40;;;;;;5087580;28;20032;-80
2022/02/25 01:07:41;;;;;;;7.53;2.20;;;7.80;61.40;;;;;;5087490;28;20024;-80
2022/02/25 01:10:10;;;;;;;11.55;3.35;;;7.80;61.30;;;;;;5087095;28;20090;-80
2022/02/25 01:12:36;;;;;;;6.85;2.17;;;7.80;61.30;;;;;;5087414;28;20028;-79
2022/02/25 01:15:05;;;;;;;8.40;2.30;;;7.80;61.30;;;;;;5087563;28;20151;-79
2022/02/25 01:17:31;;;;;;;11.30;2.97;;;7.80;61.30;;;;;;5087261;28;21012;-80
2022/02/25 01:19:58;;;;;;;8.82;2.47;;;7.80;61.30;;;;;;5087098;28;20532;-80
2022/02/25 01:22:25;;;;;;;10.77;2.55;;;7.80;61.30;;;;;;5086926;28;20031;-80
2022/02/25 01:24:51;;;;;;;10.77;2.45;;;7.80;61.30;;;;;;5086938;28;20040;-80
2022/02/25 01:27:18;;;;;;;12.25;2.90;;;7.90;61.50;;;;;;5087423;28;20024;-79
2022/02/25 01:29:44;;;;;;;9.27;2.50;;;7.80;61.30;;;;;;5087219;28;20462;-79
2022/02/25 01:32:11;;;;;;;11.43;2.38;;;7.80;61.30;;;;;;5087289;28;20032;-79
2022/02/25 01:34:37;;;;;;;9.40;2.75;;;7.80;61.30;;;;;;5086534;28;20035;-78
2022/02/25 01:37:04;;;;;;;9.25;1.67;;;7.80;61.20;;;;;;5087149;28;20064;-79
2022/02/25 01:39:31;;;;;;;5.90;1.98;;;7.80;61.30;;;;;;5087095;28;20115;-79
2022/02/25 01:41:57;;;;;;;11.18;2.88;;;7.80;61.20;;;;;;5087033;28;20371;-79
2022/02/25 01:44:26;;;;;;;8.27;2.03;;;7.80;61.20;;;;;;5087041;28;20253;-80
2022/02/25 01:46:54;;;;;;;12.23;2.40;;;7.80;61.30;;;;;;5086976;28;20135;-79
2022/02/25 01:49:22;;;;;;;5.50;2.30;;;7.70;61.10;;;;;;5086509;28;20487;-78
2022/02/25 01:51:53;;;;;;;6.45;1.73;;;7.70;61.10;;;;;;5068718;28;20055;-78
2022/02/25 01:54:19;;;;;;;9.48;2.53;;;7.70;61.20;;;;;;5086575;28;20035;-78
2022/02/25 01:56:45;;;;;;;8.73;2.42;;;7.70;61.20;;;;;;5052072;28;20399;-78
2022/02/25 01:59:11;;;;;;;8.02;2.00;;;7.70;61.20;;;;;;5086557;28;20043;-78
2022/02/25 02:01:40;;;;;;;9.30;2.17;;;7.70;61.30;;;;;;5086617;28;20122;-78
2022/02/25 02:04:07;;;;;;;10.10;2.20;;;7.60;61.10;;;;;;5086549;28;20040;-78
2022/02/25 02:06:33;;;;;;;8.48;2.40;;;7.60;61.10;;;;;;5086564;28;20025;-78
2022/02/25 02:08:59;;;;;;;8.82;2.13;;;7.60;61.20;;;;;;5068603;28;20039;-78
2022/02/25 02:11:33;;;;;;;11.77;2.40;;;7.50;61.00;;;;;;5086438;28;20020;-78
2022/02/25 02:14:02;;;;;;;8.05;2.13;;;7.50;61.10;;;;;;5086476;28;20024;-79
2022/02/25 02:16:28;;;;;;;5.82;1.80;;;7.50;61.10;;;;;;5086352;28;20121;-78
2022/02/25 02:18:55;;;;;;;7.63;2.40;;;7.50;61.20;;;;;;5086585;28;20086;-78
2022/02/25 02:21:27;;;;;;;8.77;1.67;;;7.50;61.20;;;;;;5068376;28;20402;-79
2022/02/25 02:23:55;;;;;;;8.77;2.23;;;7.50;61.20;;;;;;5086412;28;20035;-78
2022/02/25 02:26:21;;;;;;;12.43;2.45;;;7.50;61.20;;;;;;5086531;28;20096;-78
2022/02/25 02:28:48;;;;;;;7.22;2.42;;;7.50;61.50;;;;;;5068904;28;20028;-77
2022/02/25 02:31:14;;;;;;;8.30;2.67;;;7.40;61.10;;;;;;5086386;28;20394;-78
2022/02/25 02:33:41;;;;;;;7.80;2.85;;;7.40;61.10;;;;;;5068428;28;20092;-78
2022/02/25 02:36:08;;;;;;;10.02;2.10;;;7.40;61.10;;;;;;5089640;28;20043;-78
2022/02/25 02:38:35;;;;;;;5.45;1.67;;;7.40;61.10;;;;;;5090305;28;20123;-78
2022/02/25 02:41:01;;;;;;;9.20;1.80;;;7.40;61.10;;;;;;5090735;28;20035;-79
2022/02/25 02:43:27;;;;;;;8.90;2.17;;;7.40;61.10;;;;;;5091125;28;20028;-79
2022/02/25 02:45:54;;;;;;;6.70;2.00;;;7.40;61.10;;;;;;5090545;28;20032;-79
2022/02/25 02:48:21;;;;;;;7.93;2.47;;;7.40;61.70;;;;;;5093684;28;20079;-79
2022/02/25 02:50:47;;;;;;;11.32;3.65;;;7.30;61.00;;;;;;5093534;28;20062;-81
2022/02/25 02:53:14;;;;;;;12.20;2.85;;;7.30;61.00;;;;;;5093518;28;20028;-80
2022/02/25 02:55:42;;;;;;;6.03;2.13;;;7.30;61.10;;;;;;5093824;28;20040;-80
2022/02/25 02:58:08;;;;;;;7.35;2.45;;;7.30;61.10;;;;;;5093506;28;20055;-79
2022/02/25 03:00:35;;;;;;;12.55;2.85;;;7.30;61.10;;;;;;5093076;28;20062;-80
2022/02/25 03:03:02;;;;;;;10.68;2.53;;;7.30;61.10;;;;;;5075295;28;20063;-79
2022/02/25 03:05:31;;;;;;;7.65;1.83;;;7.20;61.00;;;;;;5093076;28;20425;-78
2022/02/25 03:07:57;;;;;;;9.27;3.17;;;7.20;61.00;;;;;;5093504;28;20056;-78
2022/02/25 03:10:23;;;;;;;7.78;2.30;;;7.20;61.00;;;;;;5093645;28;20059;-79
2022/02/25 03:12:49;;;;;;;9.85;2.92;;;7.20;61.00;;;;;;5095503;28;20032;-78
2022/02/25 03:15:15;;;;;;;9.18;2.22;;;7.20;61.10;;;;;;5077470;28;20487;-77
2022/02/25 03:17:42;;;;;;;9.48;2.20;;;7.20;61.10;;;;;;5076686;28;20035;-79
2022/02/25 03:20:10;;;;;;;7.40;2.65;;;7.20;61.10;;;;;;5094168;28;20035;-80
2022/02/25 03:22:37;;;;;;;12.80;2.22;;;7.20;61.10;;;;;;5075277;28;20028;-79
2022/02/25 03:25:05;;;;;;;5.45;1.75;;;7.20;61.20;;;;;;5093163;28;20036;-78
2022/02/25 03:27:32;;;;;;;7.10;2.38;;;7.20;61.20;;;;;;5092927;28;20079;-79
2022/02/25 03:29:58;;;;;;;7.95;2.92;;;7.20;61.20;;;;;;5092849;28;20698;-79
2022/02/25 03:32:24;;;;;;;9.50;2.20;;;7.20;61.20;;;;;;5074682;28;20060;-79
2022/02/25 03:34:51;;;;;;;9.88;2.63;;;7.20;61.20;;;;;;5092618;28;20117;-79
2022/02/25 03:37:21;;;;;;;14.25;3.03;;;7.10;61.00;;;;;;5092737;28;20492;-79
2022/02/25 03:39:48;;;;;;;11.15;2.85;;;7.10;61.10;;;;;;5092624;28;20036;-80
2022/02/25 03:42:14;;;;;;;8.80;2.28;;;7.10;61.10;;;;;;5074555;28;20028;-78
2022/02/25 03:44:41;;;;;;;10.10;2.38;;;7.10;61.10;;;;;;5092432;28;20122;-79
2022/02/25 03:47:07;;;;;;;8.93;2.42;;;7.10;61.10;;;;;;5092003;28;20125;-79
2022/02/25 03:49:33;;;;;;;8.15;1.90;;;7.10;61.20;;;;;;5092323;28;20028;-79
2022/02/25 03:51:59;;;;;;;7.28;1.67;;;7.10;61.20;;;;;;5092272;28;20051;-79
2022/02/25 03:54:26;;;;;;;10.93;2.35;;;7.10;61.20;;;;;;5092385;28;20503;-79
2022/02/25 03:56:52;;;;;;;14.10;4.30;;;7.00;61.10;;;;;;5074246;28;20108;-80
2022/02/25 03:59:18;;;;;;;6.72;2.08;;;7.00;61.10;;;;;;5074138;28;20031;-79
2022/02/25 04:01:51;;;;;;;8.70;1.67;;;7.00;61.20;;;;;;5057621;28;20062;-79
2022/02/25 04:04:22;;;;;;;7.72;1.92;;;7.00;61.20;;;;;;5093184;28;20147;-79
2022/02/25 04:06:50;;;;;;;10.80;2.63;;;7.00;61.20;;;;;;5074153;28;20130;-80
2022/02/25 04:09:19;;;;;;;9.70;2.35;;;7.00;61.20;;;;;;5091519;28;20144;-80
2022/02/25 04:11:47;;;;;;;7.65;1.67;;;7.00;61.20;;;;;;5074086;28;20216;-79
2022/02/25 04:14:19;;;;;;;9.18;2.03;;;6.90;61.10;;;;;;5073643;28;20029;-80
2022/02/25 04:16:46;;;;;;;9.27;1.88;;;6.90;61.10;;;;;;5073701;28;20028;-79
2022/02/25 04:19:12;;;;;;;7.75;2.05;;;6.90;61.20;;;;;;5091784;28;20051;-79
2022/02/25 04:21:39;;;;;;;7.68;1.77;;;6.90;61.20;;;;;;5091907;28;20032;-79
2022/02/25 04:24:05;;;;;;;8.57;2.42;;;6.90;61.20;;;;;;5073491;28;20028;-79
2022/02/25 04:26:31;;;;;;;9.93;2.80;;;6.90;61.20;;;;;;5091430;28;20046;-79
2022/02/25 04:28:57;;;;;;;9.40;2.10;;;6.90;61.20;;;;;;5091718;28;20027;-78
2022/02/25 04:31:24;;;;;;;8.18;2.40;;;6.90;61.20;;;;;;5073318;28;20093;-78
2022/02/25 04:33:50;;;;;;;8.95;1.98;;;6.90;61.20;;;;;;5073534;28;20080;-78
2022/02/25 04:36:20;;;;;;;7.40;1.85;;;6.90;61.20;;;;;;5091068;28;20035;-78
2022/02/25 04:38:47;;;;;;;7.45;2.53;;;6.80;61.10;;;;;;5091365;28;20023;-77
2022/02/25 04:41:13;;;;;;;9.77;2.55;;;6.80;61.10;;;;;;5091225;28;20036;-77
2022/02/25 04:43:39;;;;;;;7.47;1.90;;;6.80;61.10;;;;;;5091400;28;20141;-77
2022/02/25 04:46:05;;;;;;;9.15;2.15;;;6.80;61.10;;;;;;5073163;28;20447;-78
2022/02/25 04:48:31;;;;;;;8.63;2.20;;;6.80;61.20;;;;;;5090700;28;20073;-75
2022/02/25 04:50:57;;;;;;;5.97;1.77;;;6.80;61.20;;;;;;5090795;28;20395;-78
2022/02/25 04:53:23;;;;;;;10.85;3.08;;;6.80;61.20;;;;;;5090796;28;20028;-80
2022/02/25 04:55:49;;;;;;;7.47;2.05;;;6.80;61.30;;;;;;5056575;28;20031;-79
2022/02/25 04:58:18;;;;;;;8.27;2.10;;;6.80;61.30;;;;;;5071929;28;20055;-78
2022/02/25 05:00:44;;;;;;;8.18;2.72;;;6.80;61.30;;;;;;5091259;28;20188;-78
2022/02/25 05:03:11;;;;;;;9.75;2.35;;;6.80;61.30;;;;;;5091143;28;20032;-79
2022/02/25 05:05:37;;;;;;;10.77;2.53;;;6.70;61.20;;;;;;5072596;28;20040;-79
2022/02/25 05:08:03;;;;;;;15.45;2.45;;;6.70;61.20;;;;;;5091236;28;20031;-79
2022/02/25 05:10:30;;;;;;;11.48;2.58;;;6.70;61.20;;;;;;5090701;28;20054;-79
2022/02/25 05:12:56;;;;;;;10.85;3.17;;;6.70;61.20;;;;;;5091493;28;20016;-79
2022/02/25 05:20:53;;;;;;;12.45;4.03;;;6.70;61.30;;;;;;5090669;28;20036;-79
2022/02/25 05:23:19;;;;;;;8.98;2.58;;;6.70;61.30;;;;;;5090498;28;20476;-79
2022/02/25 05:25:46;;;;;;;8.13;2.20;;;6.70;61.30;;;;;;5090945;28;20043;-79
2022/02/25 05:28:12;;;;;;;9.32;2.20;;;6.70;61.30;;;;;;5090911;28;20047;-78
2022/02/25 05:30:40;;;;;;;7.53;2.70;;;6.70;61.30;;;;;;5090387;28;20028;-78
2022/02/25 05:33:07;;;;;;;7.78;2.33;;;6.70;61.30;;;;;;5090461;28;20119;-78
2022/02/25 05:35:33;;;;;;;7.90;2.63;;;6.60;61.20;;;;;;5072512;28;20089;-78
2022/02/25 05:38:00;;;;;;;7.57;1.95;;;6.60;61.20;;;;;;5091400;28;20028;-78
2022/02/25 05:40:27;;;;;;;12.23;2.58;;;6.60;61.20;;;;;;5092897;28;20032;-79
2022/02/25 05:42:53;;;;;;;6.30;2.08;;;6.60;61.20;;;;;;5092556;28;20020;-79
2022/02/25 05:45:19;;;;;;;10.32;2.50;;;6.60;61.20;;;;;;5092248;28;20043;-79
2022/02/25 05:47:46;;;;;;;12.32;2.75;;;6.60;61.30;;;;;;5085171;28;20051;-80
2022/02/25 05:50:14;;;;;;;12.20;2.20;;;6.60;61.30;;;;;;5049756;28;20116;-80
2022/02/25 05:52:43;;;;;;;12.07;3.03;;;6.60;61.30;;;;;;5067334;28;20070;-80
2022/02/25 05:55:10;;;;;;;12.20;2.50;;;6.60;61.30;;;;;;5049215;28;20056;-80
2022/02/25 05:57:36;;;;;;;6.50;2.33;;;6.60;61.40;;;;;;5056342;28;20029;-78
2022/02/25 06:00:04;;;;;;;7.68;3.30;;;6.60;61.40;;;;;;5086931;28;20051;-78
2022/02/25 06:02:39;;;;;;;12.45;2.88;;;6.60;61.40;;;;;;5086849;28;20824;-81
2022/02/25 06:05:06;;;;;;;9.13;2.28;;;6.60;61.40;;;;;;5086856;28;20425;-78
2022/02/25 06:07:32;;;;;;;14.20;3.45;;;6.60;61.40;;;;;;5081547;28;20569;-77
2022/02/25 06:09:58;;;;;;;7.53;1.90;;;6.60;61.40;;;;;;5082722;28;20123;-78
2022/02/25 06:12:24;;;;;;;5.03;2.08;;;6.60;61.40;;;;;;5073042;28;20036;-78
2022/02/25 06:14:50;;;;;;;11.32;2.83;;;6.60;61.40;;;;;;5070363;28;20085;-80
2022/02/25 06:17:16;;;;;;;10.02;2.28;;;6.60;61.40;;;;;;5068992;28;20083;-79
2022/02/25 06:19:42;;;;;;;7.63;2.33;;;6.60;61.40;;;;;;5069243;28;20063;-79
2022/02/25 06:22:08;;;;;;;9.88;1.98;;;6.60;61.40;;;;;;5074121;28;20488;-79
2022/02/25 06:24:34;;;;;;;10.63;2.30;;;6.60;61.40;;;;;;5069955;28;20135;-78
2022/02/25 06:27:01;;;;;;;9.82;2.33;;;6.60;61.40;;;;;;5072411;28;20142;-80
2022/02/25 06:29:26;;;;;;;10.15;2.50;;;6.60;61.40;;;;;;5072987;28;20028;-80
2022/02/25 06:31:53;;;;;;;11.45;2.65;;;6.60;61.40;;;;;;5076555;28;20097;-84
2022/02/25 06:34:19;;;;;;;8.43;2.28;;;6.60;61.40;;;;;;5072993;28;20029;-84
2022/02/25 06:36:45;;;;;;;9.48;2.10;;;6.60;61.40;;;;;;5072169;28;20036;-83
2022/02/25 06:39:11;;;;;;;10.13;1.90;;;6.60;61.40;;;;;;5081741;28;20038;-83
2022/02/25 06:41:38;;;;;;;13.60;3.17;;;6.60;61.40;;;;;;5091281;28;20041;-87
2022/02/25 06:44:04;;;;;;;8.40;2.38;;;6.60;61.40;;;;;;5073806;28;20055;-87
2022/02/25 06:46:30;;;;;;;7.60;2.47;;;6.60;61.40;;;;;;5069621;28;20055;-80
2022/02/25 06:48:56;;;;;;;9.13;2.05;;;6.60;61.40;;;;;;5080443;28;20118;-83
2022/02/25 06:51:22;;;;;;;7.05;2.65;;;6.60;61.40;;;;;;5081162;28;20035;-82
2022/02/25 06:53:49;;;;;;;9.10;2.78;;;6.60;61.40;;;;;;5070153;28;20721;-83
2022/02/25 06:56:15;;;;;;;6.97;2.25;;;6.60;61.50;;;;;;5082563;28;20028;-87
2022/02/25 06:58:41;;;;;;;6.03;2.75;;;6.60;61.50;;;;;;5072126;28;20103;-84
2022/02/25 07:01:08;;;;;;;10.75;1.90;;;6.60;61.70;;;;;;5084245;28;20119;-84
2022/02/25 07:03:34;;;;;;;12.88;2.75;;;6.60;61.90;;;;;;5077955;28;20059;-83
2022/02/25 07:06:02;;;;;;;9.88;2.47;;;6.60;61.90;;;;;;5078665;28;20040;-85
2022/02/25 07:08:28;;;;;;;8.50;2.45;;;6.70;62.40;;;;;;5072884;28;20025;-83
2022/02/25 07:10:54;;;;;;;10.57;2.45;;;6.70;62.60;;;;;;5070290;28;20025;-87
2022/02/25 07:13:20;;;;;;;9.55;2.30;;;6.80;62.90;;;;;;5054337;28;20406;-82
2022/02/25 07:15:47;;;;;;;11.32;2.50;;;6.80;62.90;;;;;;5054734;28;20036;-77
2022/02/25 07:18:16;;;;;;;6.30;2.40;;;6.90;63.10;;;;;;5073499;28;20028;-78
2022/02/25 07:20:46;;;;;;;14.20;2.63;;;6.90;63.10;;;;;;5072884;28;20369;-78
2022/02/25 07:23:13;;;;;;;8.50;2.00;;;6.90;63.10;;;;;;5067389;28;20047;-80
2022/02/25 07:25:39;;;;;;;5.95;1.83;;;6.90;63.10;;;;;;5070106;28;20036;-77
2022/02/25 07:28:06;;;;;;;9.05;2.00;;;6.90;63.10;;;;;;5066283;28;20135;-79
2022/02/25 07:30:33;;;;;;;10.95;3.38;;;6.90;63.10;;;;;;5065418;28;20031;-79
2022/02/25 07:33:00;;;;;;;7.40;2.30;;;6.90;63.20;;;;;;5070969;28;20028;-80
2022/02/25 07:35:26;;;;;;;8.88;2.33;;;6.90;63.20;;;;;;5078831;28;20036;-81
2022/02/25 07:37:52;;;;;;;6.28;2.25;;;6.90;63.20;;;;;;5078671;28;20031;-79
2022/02/25 07:40:19;;;;;;;5.65;1.77;;;6.90;63.20;;;;;;5066023;28;20163;-84
2022/02/25 07:42:45;;;;;;;8.10;1.92;;;6.90;63.20;;;;;;5072389;28;20024;-87
2022/02/25 07:45:12;;;;;;;9.60;3.05;;;6.90;63.10;;;;;;5089141;28;20402;-80
2022/02/25 07:47:38;;;;;;;7.07;1.48;;;6.90;63.10;;;;;;5070015;28;20121;-79
2022/02/25 07:50:07;;;;;;;7.55;2.42;;;6.90;63.10;;;;;;5034649;28;20028;-81
2022/02/25 07:52:33;;;;;;;9.85;2.28;;;7.00;63.30;;;;;;5072176;28;20020;-78
2022/02/25 07:55:00;;;;;;;7.72;2.20;;;6.90;63.00;;;;;;5081562;28;20433;-81
2022/02/25 07:57:26;;;;;;;10.02;3.15;;;7.00;63.20;;;;;;5088985;28;20020;-80
2022/02/25 07:59:52;;;;;;;8.18;1.92;;;7.00;63.10;;;;;;5056015;28;20040;-82
2022/02/25 08:02:18;;;;;;;16.23;2.65;;;7.00;63.10;;;;;;5070749;28;20213;-82
2022/02/25 08:04:44;;;;;;;6.35;1.73;;;7.00;63.10;;;;;;5072432;28;20132;-81
2022/02/25 08:07:11;;;;;;;8.38;2.17;;;7.00;63.00;;;;;;5091494;28;20020;-80
2022/02/25 08:09:37;;;;;;;9.57;2.80;;;7.10;63.20;;;;;;5071804;28;20028;-80
2022/02/25 08:12:03;;;;;;;6.30;1.88;;;7.10;63.10;;;;;;5090323;28;20467;-79
2022/02/25 08:14:30;;;;;;;9.30;2.20;;;7.10;63.10;;;;;;5089088;28;20028;-80
2022/02/25 08:16:56;;;;;;;8.20;2.58;;;7.20;63.20;;;;;;5071057;28;20372;-80
2022/02/25 08:19:22;;;;;;;8.40;3.35;;;7.20;63.10;;;;;;5038819;28;20024;-81
2022/02/25 08:21:48;;;;;;;11.10;2.38;;;7.20;63.10;;;;;;5069612;28;20043;-81
2022/02/25 08:24:14;;;;;;;10.93;2.00;;;7.20;63.00;;;;;;5052670;28;20032;-81
2022/02/25 08:26:40;;;;;;;10.93;3.40;;;7.30;63.10;;;;;;5077273;28;20082;-82
2022/02/25 08:29:06;;;;;;;7.75;2.25;;;7.30;63.00;;;;;;5071651;28;20227;-82
2022/02/25 08:31:32;;;;;;;10.38;3.05;;;7.40;63.20;;;;;;5072161;28;20055;-82
2022/02/25 08:33:58;;;;;;;9.82;2.90;;;7.40;63.10;;;;;;5070038;28;20021;-78
2022/02/25 08:36:24;;;;;;;13.23;3.38;;;7.50;63.20;;;;;;5052315;28;20064;-79
2022/02/25 08:38:50;;;;;;;11.00;2.83;;;7.50;63.10;;;;;;5053816;28;20028;-80
2022/02/25 08:41:16;;;;;;;7.47;2.38;;;7.50;63.10;;;;;;5050767;28;20398;-79
2022/02/25 08:43:42;;;;;;;9.38;3.10;;;7.50;63.00;;;;;;5068232;28;20048;-80
2022/02/25 08:46:09;;;;;;;8.55;2.00;;;7.60;63.10;;;;;;5067618;28;20048;-79
2022/02/25 08:48:35;;;;;;;10.27;2.85;;;7.60;63.00;;;;;;5076967;28;20094;-78
2022/02/25 08:51:02;;;;;;;10.00;2.55;;;7.60;63.00;;;;;;5088024;28;20086;-78
2022/02/25 08:53:28;;;;;;;9.02;2.97;;;7.70;63.10;;;;;;5070319;28;20414;-79
2022/02/25 08:55:54;;;;;;;8.48;2.17;;;7.70;63.10;;;;;;5069822;28;20032;-79
2022/02/25 08:58:20;;;;;;;8.93;2.78;;;7.70;63.00;;;;;;5087255;28;20028;-80
2022/02/25 09:00:46;;;;;;;10.63;2.55;;;7.70;63.00;;;;;;5086555;28;20089;-76
2022/02/25 09:03:12;;;;;;;8.93;2.78;;;7.80;63.10;;;;;;5087170;28;20039;-77
2022/02/25 09:05:39;;;;;;;11.30;3.28;;;7.80;63.00;;;;;;5088526;28;20035;-85
2022/02/25 09:08:05;;;;;;;8.52;2.72;;;7.80;62.90;;;;;;5083519;28;20056;-87
2022/02/25 09:10:31;;;;;;;8.23;2.30;;;7.90;63.00;;;;;;5050259;28;20120;-84
2022/02/25 09:12:57;;;;;;;10.23;2.33;;;7.90;63.00;;;;;;5068298;28;20036;-84
2022/02/25 09:15:26;;;;;;;13.30;3.17;;;7.90;63.00;;;;;;5067775;28;20397;-81
2022/02/25 09:17:56;;;;;;;9.35;2.90;;;8.00;63.20;;;;;;5084089;28;20024;-83
2022/02/25 09:20:24;;;;;;;22.08;2.85;;;8.10;63.50;;;;;;5088045;28;20028;-81
2022/02/25 09:22:50;;;;;;;11.23;2.90;;;8.20;63.60;;;;;;5087584;28;20039;-81
2022/02/25 09:25:17;;;;;;;12.70;2.88;;;8.30;63.70;;;;;;5087624;28;20036;-83
2022/02/25 09:27:44;;;;;;;11.57;3.65;;;8.30;63.70;;;;;;5069751;28;20027;-80
2022/02/25 09:30:13;;;;;;;7.30;2.17;;;8.30;63.80;;;;;;5087373;28;20028;-78
2022/02/25 09:32:40;;;;;;;8.57;2.80;;;8.50;64.70;;;;;;5069546;28;20031;-81
2022/02/25 09:35:07;;;;;;;13.20;2.90;;;8.60;65.00;;;;;;5088143;28;20035;-79
2022/02/25 09:37:35;;;;;;;13.63;2.70;;;8.80;65.40;;;;;;5069326;28;20488;-80
2022/02/25 09:40:07;;;;;;;9.50;2.58;;;8.90;65.40;;;;;;5069437;28;20028;-81
2022/02/25 09:42:39;;;;;;;12.65;3.03;;;8.90;65.30;;;;;;5087546;28;20028;-81
2022/02/25 09:45:07;;;;;;;5.40;2.05;;;9.00;65.40;;;;;;5086954;28;20048;-79
2022/02/25 09:47:36;;;;;;;8.40;2.90;;;9.00;65.30;;;;;;5087361;28;20047;-81
2022/02/25 09:50:12;;;;;;;8.18;2.08;;;9.00;65.30;;;;;;5087291;28;20035;-80
2022/02/25 09:52:39;;;;;;;8.55;2.25;;;9.00;65.20;;;;;;5087311;28;20024;-79
2022/02/25 09:55:19;;;;;;;11.68;3.33;;;9.00;65.10;;;;;;5087557;28;20392;-83
2022/02/25 09:57:45;;;;;;;13.27;2.53;;;9.00;65.00;;;;;;5069119;28;20024;-83
2022/02/25 10:00:12;;;;;;;9.27;2.72;;;9.00;65.00;;;;;;5087577;28;20584;-84
2022/02/25 10:02:50;;;;;;;7.30;2.50;;;9.00;65.00;;;;;;5087724;28;20032;-80
2022/02/25 10:05:19;;;;;;;9.27;2.38;;;9.00;65.00;;;;;;5086686;28;20075;-78
2022/02/25 10:07:45;;;;;;;7.60;2.83;;;9.00;64.90;;;;;;5068606;28;20059;-79
2022/02/25 10:10:13;;;;;;;9.95;2.33;;;9.10;65.00;;;;;;5052326;28;20043;-79
2022/02/25 10:12:55;;;;;;;9.18;2.75;;;9.10;65.00;;;;;;5087596;28;20024;-77
2022/02/25 10:15:33;;;;;;;13.25;2.65;;;9.10;65.40;;;;;;5087278;28;20105;-78
2022/02/25 10:18:01;;;;;;;8.55;2.72;;;9.10;64.80;;;;;;5087372;28;20070;-77
2022/02/25 10:20:27;;;;;;;10.45;3.20;;;9.20;64.90;;;;;;5087058;28;20398;-79
2022/02/25 10:22:53;;;;;;;10.30;2.80;;;9.20;64.80;;;;;;5069060;28;20071;-81
2022/02/25 10:25:21;;;;;;;8.25;2.65;;;9.20;64.80;;;;;;5069440;28;20044;-78
2022/02/25 10:27:51;;;;;;;11.68;2.50;;;9.20;64.70;;;;;;5087369;28;20032;-77
2022/02/25 10:30:20;;;;;;;12.05;2.38;;;9.20;64.60;;;;;;5087464;28;20059;-76
2022/02/25 10:32:54;;;;;;;10.13;3.03;;;9.30;64.60;;;;;;5086976;28;20024;-77
2022/02/25 10:35:30;;;;;;;11.05;2.70;;;9.30;64.50;;;;;;5070307;28;20161;-79
2022/02/25 10:38:09;;;;;;;9.85;2.35;;;9.30;64.40;;;;;;5088718;28;20107;-80
2022/02/25 10:40:43;;;;;;;9.70;2.65;;;9.40;64.50;;;;;;5071452;28;20063;-81
2022/02/25 10:43:11;;;;;;;10.60;2.78;;;9.40;64.40;;;;;;5070950;28;20055;-77
2022/02/25 10:45:40;;;;;;;13.18;2.53;;;9.40;64.30;;;;;;5087974;28;20101;-78
2022/02/25 10:48:12;;;;;;;10.02;2.15;;;9.40;64.20;;;;;;5087439;28;20044;-79
2022/02/25 10:50:48;;;;;;;8.15;1.85;;;9.50;64.20;;;;;;5087379;28;20127;-79
2022/02/25 10:53:29;;;;;;;11.57;2.35;;;9.50;64.20;;;;;;5052507;28;20499;-80
2022/02/25 10:56:08;;;;;;;9.98;2.42;;;9.50;64.10;;;;;;5069235;28;20085;-81
2022/02/25 10:58:39;;;;;;;6.70;2.08;;;9.50;63.90;;;;;;5090772;28;20433;-81
2022/02/25 11:01:06;;;;;;;12.35;2.35;;;9.60;64.00;;;;;;5091021;28;20036;-80
2022/02/25 11:03:32;;;;;;;10.55;2.17;;;9.60;63.90;;;;;;5090868;28;20024;-81
2022/02/25 11:05:58;;;;;;;9.23;2.17;;;9.70;64.00;;;;;;5090633;28;20036;-79
2022/02/25 11:08:24;;;;;;;12.82;2.50;;;9.70;63.90;;;;;;5072189;28;20028;-79
2022/02/25 11:10:51;;;;;;;6.68;2.13;;;9.70;63.70;;;;;;5090206;28;20039;-79
2022/02/25 11:13:20;;;;;;;6.78;2.20;;;9.80;63.80;;;;;;5071841;28;20024;-78
2022/02/25 11:15:47;;;;;;;6.07;2.38;;;9.80;63.80;;;;;;5055283;28;20032;-78
2022/02/25 11:18:14;;;;;;;9.27;2.88;;;9.80;63.60;;;;;;5072036;28;20119;-78
2022/02/25 11:20:43;;;;;;;8.48;2.50;;;9.90;63.70;;;;;;5089555;28;20035;-76
2022/02/25 11:23:12;;;;;;;10.02;2.50;;;9.90;63.60;;;;;;5089926;28;20150;-82
2022/02/25 11:25:40;;;;;;;7.22;2.28;;;10.00;63.70;;;;;;5089876;28;20569;-80
2022/02/25 11:28:08;;;;;;;10.43;2.53;;;10.10;63.70;;;;;;5089930;28;20035;-78
2022/02/25 11:30:44;;;;;;;10.63;3.10;;;10.30;63.80;;;;;;5089795;28;20081;-76
2022/02/25 11:33:30;;;;;;;12.63;3.15;;;10.50;63.80;;;;;;5089735;28;20036;-79
2022/02/25 11:36:00;;;;;;;8.35;2.70;;;10.70;63.70;;;;;;5062414;28;20036;-84
2022/02/25 11:38:33;;;;;;;6.53;2.20;;;10.90;63.60;;;;;;5070325;28;20081;-87
2022/02/25 11:41:04;;;;;;;;;;;11.10;63.50;;;;;;5042497;28;20028;-86
2022/02/25 11:43:42;;;;;;;11.65;2.80;;;11.30;63.40;;;;;;5090645;28;19959;-86
2022/02/25 11:46:13;;;;;;;6.22;1.83;;;11.50;63.40;;;;;;5090020;28;20081;-88
2022/02/25 11:48:40;;;;;;;7.03;2.95;;;11.60;63.10;;;;;;5071919;28;20052;-87
2022/02/25 11:51:09;;;;;;;10.88;2.45;;;11.70;63.00;;;;;;5091179;28;20016;-87
2022/02/25 11:53:35;;;;;;;12.45;2.72;;;11.80;63.00;;;;;;5072269;28;20024;-89
2022/02/25 11:56:20;;;;;;;10.13;2.05;;;11.90;63.00;;;;;;5072910;28;20144;-87
2022/02/25 11:58:46;;;;;;;7.80;2.08;;;11.90;62.80;;;;;;5090043;28;20028;-89
2022/02/25 12:01:21;;;;;;;9.50;2.53;;;11.80;62.70;;;;;;5071760;28;20059;-87
2022/02/25 12:04:05;;;;;;;7.18;2.15;;;11.80;62.60;;;;;;5090957;28;20371;-87
2022/02/25 12:06:58;;;;;;;8.07;2.63;;;11.80;62.50;;;;;;5088927;28;20051;-87
2022/02/25 12:09:46;;;;;;;10.23;2.55;;;11.80;62.50;;;;;;5071923;28;20093;-88
2022/02/25 12:12:24;;;;;;;6.43;2.25;;;11.80;62.50;;;;;;5090149;28;20459;-89
2022/02/25 12:15:07;;;;;;;6.85;2.00;;;11.80;62.50;;;;;;5089744;28;20153;-87
2022/02/25 12:17:36;;;;;;;;;;;11.80;62.50;;;;;;5090236;28;20020;-91
2022/02/25 12:20:22;;;;;;;9.13;2.45;;;11.80;62.50;;;;;;5073504;28;19953;-87
2022/02/25 12:23:06;;;;;;;8.05;1.50;;;11.80;62.40;;;;;;5089034;28;20028;-91
2022/02/25 12:25:41;;;;;;;7.47;2.10;;;11.80;62.60;;;;;;5090642;28;20051;-87
2022/02/25 12:28:22;;;;;;;6.78;1.67;;;11.80;62.90;;;;;;5071214;28;20024;-86
2022/02/25 12:31:17;;;;;;;7.53;2.40;;;11.90;63.10;;;;;;5071626;28;20035;-86
2022/02/25 12:33:43;;;;;;;12.25;2.35;;;11.90;62.90;;;;;;5069885;28;20368;-90
2022/02/25 12:36:13;;;;;;;6.70;1.50;;;12.00;63.10;;;;;;5090054;28;20039;-90
2022/02/25 12:38:47;;;;;;;9.55;1.42;;;12.00;63.00;;;;;;5089994;28;20508;-90
2022/02/25 12:41:18;;;;;;;7.05;1.95;;;12.00;63.00;;;;;;5089517;28;20533;-88
2022/02/25 12:43:50;;;;;;;7.57;1.90;;;12.00;62.90;;;;;;5089580;28;20035;-89
2022/02/25 12:46:18;;;;;;;7.43;2.45;;;12.00;62.90;;;;;;5090578;28;20040;-80
2022/02/25 12:48:45;;;;;;;12.00;2.08;;;12.10;63.00;;;;;;5089176;28;20067;-84
2022/02/25 12:51:12;;;;;;;7.13;2.72;;;12.20;63.00;;;;;;5054379;28;20028;-84
2022/02/25 12:53:53;;;;;;;10.10;2.53;;;12.20;62.90;;;;;;5089025;28;20498;-83
2022/02/25 12:56:24;;;;;;;7.35;2.78;;;12.30;62.80;;;;;;5070982;28;20380;-82
2022/02/25 12:58:52;;;;;;;5.20;1.63;;;12.30;62.70;;;;;;5088505;28;20028;-84
2022/02/25 13:01:21;;;;;;;16.20;2.97;;;12.50;62.80;;;;;;5088743;28;20032;-83
2022/02/25 13:03:57;;;;;;;5.75;1.75;;;12.60;62.70;;;;;;5088703;28;20084;-81